createdAt,value
2018-12-18T00:01:46.302Z,94.67
2018-12-18T00:04:19.144Z,94.44
2018-12-18T00:06:50.538Z,94.11
2018-12-18T00:09:19.866Z,93.98
2018-12-18T00:11:49.389Z,93.79
2018-12-18T00:14:19.008Z,93.94
2018-12-18T00:16:48.332Z,94.32
2018-12-18T00:19:18.023Z,94.48
2018-12-18T00:21:47.568Z,94.04
2018-12-18T00:24:16.893Z,94.20
2018-12-18T00:26:46.111Z,94.35
2018-12-18T00:29:15.357Z,94.56
2018-12-18T00:31:44.587Z,94.30
2018-12-18T00:34:14.921Z,94.08
2018-12-18T00:36:45.036Z,94.27
2018-12-18T00:39:15.749Z,94.36
2018-12-18T00:41:45.401Z,94.62
2018-12-18T00:44:14.741Z,94.67
2018-12-18T00:46:44.597Z,95.28
2018-12-18T00:49:13.945Z,96.06
2018-12-18T00:51:43.386Z,96.10
2018-12-18T00:54:13.073Z,95.68
2018-12-18T00:56:42.524Z,95.45
2018-12-18T00:59:11.910Z,95.12
2018-12-18T01:01:43.856Z,94.46
2018-12-18T01:04:13.181Z,94.67
2018-12-18T01:06:42.477Z,94.11
2018-12-18T01:09:12.602Z,93.96
2018-12-18T01:11:41.919Z,94.00
2018-12-18T01:14:12.163Z,93.64
2018-12-18T01:16:42.143Z,93.21
2018-12-18T01:19:11.463Z,93.33
2018-12-18T01:21:40.824Z,93.49
2018-12-18T01:24:10.788Z,93.56
2018-12-18T01:26:40.147Z,93.61
2018-12-18T01:29:09.361Z,93.90
2018-12-18T01:31:38.667Z,93.93
2018-12-18T01:34:08.761Z,93.71
2018-12-18T01:36:38.999Z,94.05
2018-12-18T01:39:09.183Z,93.84
2018-12-18T01:41:38.442Z,94.80
2018-12-18T01:44:07.718Z,94.32
2018-12-18T01:46:37.227Z,94.52
2018-12-18T01:49:06.886Z,94.20
2018-12-18T01:51:36.238Z,93.83
2018-12-18T01:54:05.464Z,94.50
2018-12-18T01:56:34.912Z,94.61
2018-12-18T01:59:04.628Z,94.25
2018-12-18T02:01:33.864Z,94.47
2018-12-18T02:04:06.141Z,93.85
2018-12-18T02:06:35.359Z,94.09
2018-12-18T02:09:07.617Z,94.17
2018-12-18T02:11:38.315Z,94.40
2018-12-18T02:14:07.912Z,94.26
2018-12-18T02:16:38.171Z,94.31
2018-12-18T02:19:07.364Z,94.33
2018-12-18T02:21:37.542Z,94.04
2018-12-18T02:24:07.903Z,93.76
2018-12-18T02:26:37.897Z,94.08
2018-12-18T02:29:07.289Z,93.59
2018-12-18T02:31:36.500Z,94.00
2018-12-18T02:34:13.478Z,93.89
2018-12-18T02:36:37.798Z,94.50
2018-12-18T02:39:08.238Z,94.46
2018-12-18T02:41:38.149Z,94.37
2018-12-18T02:44:07.480Z,94.79
2018-12-18T02:46:36.863Z,94.50
2018-12-18T02:49:06.319Z,94.29
2018-12-18T02:51:35.756Z,94.10
2018-12-18T02:54:05.299Z,94.85
2018-12-18T02:56:35.435Z,94.16
2018-12-18T02:59:06.040Z,94.62
2018-12-18T03:01:35.395Z,94.53
2018-12-18T03:04:05.133Z,94.34
2018-12-18T03:06:34.451Z,95.15
2018-12-18T03:09:05.464Z,94.71
2018-12-18T03:11:36.877Z,95.18
2018-12-18T03:14:06.865Z,94.71
2018-12-18T03:16:36.224Z,95.37
2018-12-18T03:19:06.259Z,94.88
2018-12-18T03:21:35.695Z,94.85
2018-12-18T03:24:06.919Z,95.06
2018-12-18T03:26:36.968Z,94.91
2018-12-18T03:29:06.195Z,94.82
2018-12-18T03:31:38.097Z,95.40
2018-12-18T03:34:07.511Z,94.86
2018-12-18T03:36:36.794Z,94.54
2018-12-18T03:39:07.231Z,94.83
2018-12-18T03:41:37.925Z,94.13
2018-12-18T03:44:07.327Z,94.03
2018-12-18T03:46:36.726Z,94.18
2018-12-18T03:49:06.971Z,94.95
2018-12-18T03:51:36.541Z,94.39
2018-12-18T03:54:06.137Z,94.15
2018-12-18T03:56:35.569Z,94.73
2018-12-18T03:59:06.468Z,95.07
2018-12-18T04:01:35.758Z,94.38
2018-12-18T04:04:05.928Z,94.92
2018-12-18T04:06:35.196Z,94.49
2018-12-18T04:09:07.434Z,94.37
2018-12-18T04:11:42.378Z,94.35
2018-12-18T04:14:11.731Z,94.27
2018-12-18T04:16:41.171Z,94.36
2018-12-18T04:19:11.120Z,94.71
2018-12-18T04:21:41.236Z,94.05
2018-12-18T04:24:10.578Z,94.70
2018-12-18T04:26:40.220Z,95.04
2018-12-18T04:29:09.784Z,94.66
2018-12-18T04:31:39.174Z,95.12
2018-12-18T04:34:08.335Z,95.33
2018-12-18T04:36:38.711Z,94.77
2018-12-18T04:39:08.720Z,94.75
2018-12-18T04:41:38.024Z,95.62
2018-12-18T04:44:08.131Z,94.91
2018-12-18T04:46:38.305Z,95.11
2018-12-18T04:49:07.643Z,95.25
2018-12-18T04:51:36.933Z,95.06
2018-12-18T04:54:07.809Z,95.28
2018-12-18T04:56:37.245Z,94.59
2018-12-18T04:59:06.502Z,94.43
2018-12-18T05:01:35.886Z,94.74
2018-12-18T05:04:05.886Z,94.82
2018-12-18T05:06:36.014Z,95.08
2018-12-18T05:09:09.218Z,95.00
2018-12-18T05:11:39.511Z,95.64
2018-12-18T05:14:09.580Z,95.19
2018-12-18T05:16:39.660Z,95.67
2018-12-18T05:19:09.914Z,95.71
2018-12-18T05:21:40.118Z,95.32
2018-12-18T05:24:09.555Z,95.12
2018-12-18T05:26:39.134Z,94.79
2018-12-18T05:29:08.673Z,95.41
2018-12-18T05:31:39.014Z,94.47
2018-12-18T05:34:08.339Z,94.32
2018-12-18T05:36:39.201Z,94.93
2018-12-18T05:39:08.672Z,95.30
2018-12-18T05:41:37.946Z,95.29
2018-12-18T05:44:09.535Z,95.23
2018-12-18T05:46:39.129Z,95.50
2018-12-18T05:49:08.577Z,95.34
2018-12-18T05:51:38.072Z,95.24
2018-12-18T05:54:08.683Z,95.81
2018-12-18T05:56:38.721Z,95.24
2018-12-18T05:59:08.105Z,95.41
2018-12-18T06:01:37.647Z,95.56
2018-12-18T06:04:07.291Z,95.43
2018-12-18T06:06:36.710Z,95.74
2018-12-18T06:09:07.905Z,95.07
2018-12-18T06:11:37.362Z,95.39
2018-12-18T06:14:07.432Z,95.23
2018-12-18T06:16:37.591Z,94.30
2018-12-18T06:19:08.195Z,95.11
2018-12-18T06:21:37.618Z,95.32
2018-12-18T06:24:07.251Z,95.50
2018-12-18T06:26:36.663Z,96.21
2018-12-18T06:29:06.032Z,96.50
2018-12-18T06:31:35.545Z,95.99
2018-12-18T06:34:05.207Z,95.50
2018-12-18T06:36:35.416Z,95.77
2018-12-18T06:39:07.296Z,95.74
2018-12-18T06:41:36.598Z,96.54
2018-12-18T06:44:06.621Z,96.43
2018-12-18T06:46:36.175Z,96.65
2018-12-18T06:49:05.525Z,96.32
2018-12-18T06:51:35.201Z,96.61
2018-12-18T06:54:04.791Z,95.94
2018-12-18T06:56:34.273Z,96.30
2018-12-18T06:59:05.126Z,95.99
2018-12-18T07:01:34.445Z,95.96
2018-12-18T07:04:03.918Z,95.59
2018-12-18T07:06:33.770Z,95.85
2018-12-18T07:09:05.885Z,95.89
2018-12-18T07:11:37.037Z,95.69
2018-12-18T07:14:07.256Z,95.53
2018-12-18T07:16:37.477Z,95.69
2018-12-18T07:19:07.561Z,95.82
2018-12-18T07:21:37.026Z,95.80
2018-12-18T07:24:06.487Z,95.84
2018-12-18T07:26:35.986Z,95.30
2018-12-18T07:29:05.521Z,95.77
2018-12-18T07:31:34.806Z,95.33
2018-12-18T07:34:05.062Z,95.70
2018-12-18T07:36:34.411Z,95.63
2018-12-18T07:39:05.947Z,95.82
2018-12-18T07:41:35.221Z,96.02
2018-12-18T07:44:05.887Z,96.00
2018-12-18T07:46:35.138Z,95.64
2018-12-18T07:49:04.827Z,95.75
2018-12-18T07:51:35.408Z,95.91
2018-12-18T07:54:05.622Z,95.47
2018-12-18T07:56:34.982Z,94.20
2018-12-18T07:59:04.577Z,94.38
2018-12-18T08:01:34.342Z,94.88
2018-12-18T08:04:04.263Z,95.58
2018-12-18T08:06:34.104Z,96.02
2018-12-18T08:09:05.856Z,95.90
2018-12-18T08:11:36.096Z,95.42
2018-12-18T08:14:05.794Z,95.90
2018-12-18T08:16:36.627Z,96.29
2018-12-18T08:19:06.846Z,95.69
2018-12-18T08:21:36.927Z,93.38
2018-12-18T08:24:07.113Z,93.21
2018-12-18T08:26:37.141Z,92.32
2018-12-18T08:29:06.654Z,91.29
2018-12-18T08:31:36.832Z,88.51
2018-12-18T08:34:06.767Z,86.54
2018-12-18T08:36:36.206Z,83.05
2018-12-18T08:39:09.142Z,81.57
2018-12-18T08:41:39.756Z,81.17
2018-12-18T08:44:09.900Z,81.29
2018-12-18T08:46:39.815Z,79.75
2018-12-18T08:49:09.979Z,78.17
2018-12-18T08:51:40.188Z,76.41
2018-12-18T08:54:10.071Z,75.18
2018-12-18T08:56:39.916Z,72.48
2018-12-18T08:59:09.773Z,69.27
2018-12-18T09:01:40.142Z,67.09
2018-12-18T09:04:10.428Z,66.52
2018-12-18T09:06:42.538Z,67.62
2018-12-18T09:09:12.586Z,66.21
2018-12-18T09:11:42.767Z,66.09
2018-12-18T09:14:14.014Z,66.17
2018-12-18T09:16:49.541Z,66.59
2018-12-18T09:19:19.146Z,65.99
2018-12-18T09:21:48.963Z,66.11
2018-12-18T09:24:18.742Z,65.10
2018-12-18T09:26:48.887Z,67.15
2018-12-18T09:29:18.977Z,63.57
2018-12-18T09:31:48.736Z,60.38
2018-12-18T09:34:18.439Z,57.21
2018-12-18T09:36:48.706Z,55.38
2018-12-18T09:39:19.670Z,52.29
2018-12-18T09:41:51.087Z,51.43
2018-12-18T09:44:21.933Z,50.61
2018-12-18T09:46:51.314Z,51.68
2018-12-18T09:49:20.842Z,53.00
2018-12-18T09:51:50.741Z,55.21
2018-12-18T09:54:20.031Z,56.90
2018-12-18T09:56:51.688Z,57.90
2018-12-18T09:59:21.345Z,58.64
2018-12-18T10:01:50.678Z,60.53
2018-12-18T10:04:20.712Z,59.71
2018-12-18T10:06:50.862Z,56.69
2018-12-18T10:09:21.109Z,53.82
2018-12-18T10:11:51.393Z,55.28
2018-12-18T10:14:21.487Z,53.96
2018-12-18T10:16:51.675Z,51.33
2018-12-18T10:19:21.082Z,50.99
2018-12-18T10:21:50.667Z,50.22
2018-12-18T10:24:20.348Z,51.36
2018-12-18T10:26:49.798Z,49.86
2018-12-18T10:29:19.371Z,50.25
2018-12-18T10:31:48.981Z,52.66
2018-12-18T10:34:18.587Z,55.37
2018-12-18T10:36:48.529Z,54.46
2018-12-18T10:39:18.588Z,55.93
2018-12-18T10:41:48.126Z,54.50
2018-12-18T10:44:17.705Z,50.59
2018-12-18T10:46:47.258Z,49.66
2018-12-18T10:49:16.568Z,47.39
2018-12-18T10:51:45.797Z,45.31
2018-12-18T10:54:15.787Z,44.67
2018-12-18T10:56:46.312Z,44.34
2018-12-18T10:59:16.344Z,43.33
2018-12-18T11:03:12.063Z,41.84
2018-12-18T11:05:42.682Z,44.01
2018-12-18T11:08:12.895Z,44.06
2018-12-18T11:10:43.021Z,45.79
2018-12-18T11:13:19.153Z,46.31
2018-12-18T11:15:49.359Z,47.61
2018-12-18T11:18:19.422Z,46.43
2018-12-18T11:20:49.666Z,45.15
2018-12-18T11:23:20.194Z,44.77
2018-12-18T11:25:50.927Z,43.98
2018-12-18T11:28:21.202Z,44.05
2018-12-18T11:30:51.556Z,43.69
2018-12-18T11:33:21.592Z,45.39
2018-12-18T11:35:52.012Z,42.34
2018-12-18T11:38:22.025Z,41.27
2018-12-18T11:40:52.002Z,39.89
2018-12-18T11:43:22.859Z,41.96
2018-12-18T11:45:52.412Z,39.19
2018-12-18T11:48:22.863Z,38.63
2018-12-18T11:50:52.985Z,38.39
2018-12-18T11:53:22.703Z,38.81
2018-12-18T11:55:52.329Z,37.06
2018-12-18T11:58:21.733Z,36.77
2018-12-18T12:00:53.603Z,36.24
2018-12-18T12:03:22.900Z,35.99
2018-12-18T12:05:54.439Z,38.19
2018-12-18T12:08:24.356Z,41.20
2018-12-18T12:10:53.736Z,43.50
2018-12-18T12:13:23.769Z,41.34
2018-12-18T12:15:53.117Z,41.12
2018-12-18T12:18:22.678Z,41.89
2018-12-18T12:20:52.500Z,41.68
2018-12-18T12:23:22.248Z,43.74
2018-12-18T12:25:51.746Z,43.97
2018-12-18T12:28:21.982Z,45.63
2018-12-18T12:30:51.274Z,45.61
2018-12-18T12:33:20.772Z,45.99
2018-12-18T12:35:50.599Z,44.88
2018-12-18T12:38:20.028Z,44.71
2018-12-18T12:40:49.530Z,44.75
2018-12-18T12:43:19.152Z,45.70
2018-12-18T12:45:48.678Z,47.42
2018-12-18T12:48:19.647Z,47.66
2018-12-18T12:50:49.022Z,47.02
2018-12-18T12:53:19.007Z,47.06
2018-12-18T12:55:49.217Z,47.12
2018-12-18T12:58:18.673Z,47.20
2018-12-18T13:00:48.772Z,50.28
2018-12-18T13:03:18.928Z,50.26
2018-12-18T13:05:49.036Z,50.41
2018-12-18T13:08:18.407Z,49.75
2018-12-18T13:10:48.713Z,50.48
2018-12-18T13:13:18.167Z,50.88
2018-12-18T13:15:47.546Z,51.96
2018-12-18T13:19:31.191Z,53.38
2018-12-18T13:22:00.707Z,53.02
2018-12-18T13:24:30.688Z,53.04
2018-12-18T13:27:00.306Z,54.51
2018-12-18T13:29:30.386Z,54.76
2018-12-18T13:32:00.268Z,54.90
2018-12-18T13:34:29.626Z,55.77
2018-12-18T13:36:59.065Z,56.40
2018-12-18T13:39:28.743Z,55.71
2018-12-18T13:41:58.822Z,55.71
2018-12-18T13:44:28.409Z,54.58
2018-12-18T13:46:57.866Z,54.70
2018-12-18T13:49:27.420Z,56.86
2018-12-18T13:51:56.867Z,58.60
2018-12-18T13:54:27.132Z,58.71
2018-12-18T13:56:56.627Z,58.91
2018-12-18T13:59:27.216Z,57.96
2018-12-18T14:01:56.798Z,57.72
2018-12-18T14:04:27.058Z,58.70
2018-12-18T14:06:56.347Z,58.11
2018-12-18T14:09:25.536Z,57.98
2018-12-18T14:11:55.087Z,59.87
2018-12-18T14:14:25.846Z,62.73
2018-12-18T14:16:55.270Z,61.30
2018-12-18T14:19:24.821Z,61.70
2018-12-18T14:21:54.473Z,61.55
2018-12-18T14:24:24.036Z,63.13
2018-12-18T14:26:53.525Z,63.33
2018-12-18T14:29:23.207Z,63.47
2018-12-18T14:31:52.636Z,63.75
2018-12-18T14:34:22.211Z,64.71
2018-12-18T14:36:56.238Z,66.04
2018-12-18T14:39:23.192Z,65.65
2018-12-18T14:41:52.762Z,66.42
2018-12-18T14:44:24.837Z,67.08
2018-12-18T14:46:54.611Z,68.25
2018-12-18T14:49:23.990Z,68.44
2018-12-18T14:51:54.775Z,68.14
2018-12-18T14:54:24.398Z,68.31
2018-12-18T14:56:54.351Z,67.84
2018-12-18T14:59:24.168Z,67.26
2018-12-18T15:01:53.861Z,68.59
2018-12-18T15:04:23.091Z,69.07
2018-12-18T15:06:53.161Z,69.93
2018-12-18T15:09:22.522Z,71.05
2018-12-18T15:11:52.424Z,71.11
2018-12-18T15:14:21.985Z,72.46
2018-12-18T15:16:52.229Z,74.17
2018-12-18T15:19:22.339Z,74.18
2018-12-18T15:21:52.073Z,74.21
2018-12-18T15:24:22.617Z,74.46
2018-12-18T15:26:52.962Z,74.17
2018-12-18T15:29:22.249Z,74.35
2018-12-18T15:31:52.139Z,75.07
2018-12-18T15:34:22.443Z,74.71
2018-12-18T15:36:51.917Z,75.37
2018-12-18T15:39:21.793Z,76.22
2018-12-18T15:41:51.169Z,76.11
2018-12-18T15:44:21.379Z,76.17
2018-12-18T15:46:51.721Z,75.93
2018-12-18T15:49:21.659Z,76.55
2018-12-18T15:51:51.001Z,77.02
2018-12-18T15:54:20.995Z,77.77
2018-12-18T15:56:50.498Z,78.22
2018-12-18T15:59:20.480Z,77.86
2018-12-18T16:01:50.883Z,78.46
2018-12-18T16:04:21.434Z,78.30
2018-12-18T16:06:50.863Z,78.47
2018-12-18T16:09:20.393Z,78.69
2018-12-18T16:11:50.126Z,78.96
2018-12-18T16:14:19.763Z,78.35
2018-12-18T16:16:49.519Z,78.78
2018-12-18T16:19:19.488Z,79.47
2018-12-18T16:21:50.002Z,79.84
2018-12-18T16:24:19.844Z,80.42
2018-12-18T16:26:49.519Z,80.83
2018-12-18T16:29:18.896Z,81.15
2018-12-18T16:31:48.389Z,81.93
2018-12-18T16:34:18.799Z,81.61
2018-12-18T16:36:50.600Z,80.82
2018-12-18T16:39:19.918Z,81.50
2018-12-18T16:41:49.964Z,82.45
2018-12-18T16:44:19.505Z,83.07
2018-12-18T16:46:50.067Z,82.71
2018-12-18T16:49:19.514Z,83.40
2018-12-18T16:51:49.127Z,84.19
2018-12-18T16:54:19.045Z,83.65
2018-12-18T16:56:48.825Z,83.34
2018-12-18T16:59:18.480Z,83.47
2018-12-18T17:01:48.679Z,83.51
2018-12-18T17:04:18.965Z,84.49
2018-12-18T17:06:49.012Z,85.58
2018-12-18T17:09:19.315Z,85.84
2018-12-18T17:11:49.289Z,85.46
2018-12-18T17:14:18.824Z,85.40
2018-12-18T17:16:48.435Z,85.46
2018-12-18T17:19:18.843Z,85.74
2018-12-18T17:21:48.331Z,85.31
2018-12-18T17:24:17.700Z,85.72
2018-12-18T17:26:47.646Z,86.89
2018-12-18T17:29:17.926Z,88.58
2018-12-18T17:31:48.240Z,86.40
2018-12-18T17:34:18.211Z,85.96
2018-12-18T17:36:47.616Z,86.28
2018-12-18T17:39:17.230Z,86.87
2018-12-18T17:41:46.933Z,86.98
2018-12-18T17:44:16.406Z,87.80
2018-12-18T17:46:46.282Z,87.46
2018-12-18T17:49:15.825Z,87.91
2018-12-18T17:51:45.915Z,88.02
2018-12-18T17:54:15.840Z,89.00
2018-12-18T17:56:45.319Z,89.50
2018-12-18T17:59:15.032Z,89.33
2018-12-18T18:01:44.525Z,89.49
2018-12-18T18:04:13.934Z,89.72
2018-12-18T18:06:43.945Z,89.43
2018-12-18T18:09:14.166Z,89.39
2018-12-18T18:11:43.586Z,89.07
2018-12-18T18:14:13.235Z,88.63
2018-12-18T18:16:43.866Z,89.19
2018-12-18T18:19:14.042Z,89.58
2018-12-18T18:21:44.457Z,89.13
2018-12-18T18:24:14.539Z,90.03
2018-12-18T18:26:44.552Z,90.27
2018-12-18T18:29:14.952Z,90.10
2018-12-18T18:31:45.031Z,89.98
2018-12-18T18:34:14.553Z,90.59
2018-12-18T18:36:44.458Z,91.26
2018-12-18T18:39:15.856Z,92.11
2018-12-18T18:41:45.819Z,92.04
2018-12-18T18:44:15.985Z,91.83
2018-12-18T18:46:45.499Z,91.18
2018-12-18T18:49:15.410Z,91.74
2018-12-18T18:51:45.720Z,91.64
2018-12-18T18:54:15.659Z,92.02
2018-12-18T18:56:45.263Z,91.33
2018-12-18T18:59:15.246Z,92.71
2018-12-18T19:01:45.636Z,92.65
2018-12-18T19:04:15.664Z,93.95
2018-12-18T19:06:45.726Z,94.37
2018-12-18T19:09:15.297Z,94.17
2018-12-18T19:11:45.155Z,93.49
2018-12-18T19:14:15.842Z,93.27
2018-12-18T19:16:45.630Z,93.91
2018-12-18T19:19:15.061Z,93.52
2018-12-18T19:21:45.014Z,93.01
2018-12-18T19:24:15.261Z,93.64
2018-12-18T19:26:44.650Z,93.06
2018-12-18T19:29:14.290Z,94.76
2018-12-18T19:31:43.959Z,95.25
2018-12-18T19:34:13.435Z,95.00
2018-12-18T19:36:43.881Z,94.49
2018-12-18T19:39:13.864Z,93.89
2018-12-18T19:41:43.717Z,94.30
2018-12-18T19:44:13.374Z,94.29
2018-12-18T19:46:42.987Z,94.85
2018-12-18T19:49:12.594Z,94.51
2018-12-18T19:51:42.765Z,94.06
2018-12-18T19:54:12.800Z,93.90
2018-12-18T19:56:42.333Z,93.36
2018-12-18T19:59:12.524Z,93.09
2018-12-18T20:01:42.389Z,94.01
2018-12-18T20:04:12.882Z,94.15
2018-12-18T20:06:43.380Z,93.59
2018-12-18T20:09:12.986Z,93.81
2018-12-18T20:11:43.339Z,93.43
2018-12-18T20:14:13.358Z,92.81
2018-12-18T20:16:42.856Z,92.64
2018-12-18T20:19:12.734Z,93.16
2018-12-18T20:21:42.905Z,93.09
2018-12-18T20:24:13.598Z,93.71
2018-12-18T20:26:43.424Z,93.52
2018-12-18T20:29:12.881Z,93.67
2018-12-18T20:31:42.761Z,93.82
2018-12-18T20:34:12.242Z,94.26
2018-12-18T20:36:42.529Z,94.56
2018-12-18T20:39:13.534Z,93.50
2018-12-18T20:41:44.279Z,94.41
2018-12-18T20:44:13.814Z,94.32
2018-12-18T20:46:44.107Z,94.87
2018-12-18T20:49:14.122Z,94.49
2018-12-18T20:51:44.460Z,93.77
2018-12-18T20:54:14.610Z,93.55
2018-12-18T20:56:44.335Z,93.36
2018-12-18T20:59:14.016Z,93.17
2018-12-18T21:04:27.932Z,95.04
2018-12-18T21:06:58.842Z,95.63
2018-12-18T21:09:28.454Z,95.65
2018-12-18T21:11:58.783Z,95.30
2018-12-18T21:14:29.010Z,94.60
2018-12-18T21:16:58.528Z,94.42
2018-12-18T21:19:30.369Z,93.66
2018-12-18T21:22:00.031Z,94.45
2018-12-18T21:24:29.617Z,93.98
2018-12-18T21:27:00.280Z,93.96
2018-12-18T21:29:30.345Z,93.62
2018-12-18T21:32:00.315Z,93.17
2018-12-18T21:34:30.082Z,93.25
2018-12-18T21:37:00.975Z,93.84
2018-12-18T21:39:30.739Z,93.56
2018-12-18T21:42:00.201Z,93.45
2018-12-18T21:44:30.022Z,93.28
2018-12-18T21:47:00.342Z,93.61
2018-12-18T21:49:30.066Z,93.41
2018-12-18T21:51:59.905Z,93.17
2018-12-18T21:54:29.289Z,92.95
2018-12-18T21:56:59.042Z,93.08
2018-12-18T21:59:28.654Z,93.67
2018-12-18T22:01:58.357Z,94.41
2018-12-18T22:04:28.989Z,94.72
2018-12-18T22:06:59.126Z,94.42
2018-12-18T22:09:28.693Z,94.41
2018-12-18T22:11:58.406Z,93.93
2018-12-18T22:14:28.671Z,94.10
2018-12-18T22:16:58.130Z,93.80
2018-12-18T22:19:27.744Z,93.50
2018-12-18T22:21:57.330Z,93.86
2018-12-18T22:24:26.826Z,93.61
2018-12-18T22:26:56.495Z,93.67
2018-12-18T22:29:25.925Z,93.80
2018-12-18T22:31:56.135Z,93.96
2018-12-18T22:34:25.706Z,93.25
2018-12-18T22:36:55.466Z,93.18
2018-12-18T22:39:24.850Z,92.83
2018-12-18T22:41:55.031Z,92.84
2018-12-18T22:44:24.418Z,93.04
2018-12-18T22:46:53.990Z,93.01
2018-12-18T22:49:23.506Z,93.08
2018-12-18T22:56:41.534Z,93.87
2018-12-18T22:59:11.085Z,93.62
2018-12-18T23:01:47.377Z,93.42
2018-12-18T23:04:17.954Z,93.92
2018-12-18T23:06:47.336Z,93.49
2018-12-18T23:09:17.400Z,93.19
2018-12-18T23:11:46.971Z,94.35
2018-12-18T23:14:17.813Z,93.82
2018-12-18T23:16:47.131Z,93.97
2018-12-18T23:19:17.103Z,93.44
2018-12-18T23:21:47.399Z,93.48
2018-12-18T23:24:16.925Z,93.06
2018-12-18T23:26:46.756Z,93.37
2018-12-18T23:29:16.205Z,93.53
2018-12-18T23:31:46.393Z,93.36
2018-12-18T23:34:17.990Z,93.73
2018-12-18T23:36:47.590Z,93.94
2018-12-18T23:39:17.924Z,93.82
2018-12-18T23:41:47.643Z,93.62
2018-12-18T23:44:17.409Z,92.96
2018-12-18T23:46:47.626Z,93.32
2018-12-18T23:49:17.241Z,94.02
2018-12-18T23:51:46.793Z,93.44
2018-12-18T23:54:16.086Z,93.56
2018-12-18T23:56:45.538Z,93.22
2018-12-18T23:59:15.416Z,92.85
